Time;durP1;ratioP1;P1;durP2;ratioP2;P2;SDS_P1;SDS_P2;PMS_P1;PMS_P2;Temp;Humidity;BMP_temperature;BMP_pressure;BME280_temperature;BME280_humidity;BME280_pressure;Samples;Min_cycle;Max_cycle;Signal;HPM_P1;HPM_P2
2022/05/03 05:26:02;;;;;;;4.43;3.90;;;;;;;6.89;68.81;101760.78;4898078;29;20035;-94
2022/05/03 05:35:36;;;;;;;4.47;3.50;;;;;;;7.12;68.75;101776.31;4978443;28;20088;-95
2022/05/03 05:38:04;;;;;;;4.75;3.83;;;;;;;7.18;69.09;101781.03;4986975;28;20037;-96
2022/05/03 05:40:40;;;;;;;5.22;4.10;;;;;;;7.20;68.03;101782.56;5001016;28;20088;-94
2022/05/03 05:43:20;;;;;;;;;;;;;;;;;;;;;
2022/05/03 05:45:54;;;;;;;5.68;3.83;;;;;;;7.33;68.15;101783.88;4999046;28;20118;-96
2022/05/03 05:48:25;;;;;;;4.13;3.65;;;;;;;7.34;67.20;101781.00;4965686;28;20062;-96
2022/05/03 05:50:51;;;;;;;5.45;4.95;;;;;;;7.40;68.97;101789.41;4997836;28;20395;-96
2022/05/03 05:53:31;;;;;;;4.63;3.72;;;;;;;7.47;68.43;101795.81;4997483;28;20030;-95
2022/05/03 05:56:03;;;;;;;5.10;3.72;;;;;;;7.45;67.93;101784.34;4981404;28;20526;-96
2022/05/03 05:58:37;;;;;;;5.80;5.25;;;;;;;7.48;68.36;101782.16;4982648;28;20034;-96
2022/05/03 06:01:05;;;;;;;4.57;4.10;;;;;;;7.49;66.90;101783.84;4981119;28;20064;-96
2022/05/03 06:03:40;;;;;;;5.30;3.85;;;;;;;7.58;68.17;101795.47;4981335;28;20471;-96
2022/05/03 06:06:10;;;;;;;6.07;5.18;;;;;;;7.58;69.32;101786.53;4981277;28;20042;-96
2022/05/03 06:08:41;;;;;;;5.22;4.05;;;;;;;7.65;67.45;101785.66;4996875;28;20171;-96
2022/05/03 06:11:09;;;;;;;7.78;4.50;;;;;;;7.69;68.39;101786.16;4997337;28;20443;-96
2022/05/03 06:13:35;;;;;;;5.45;4.95;;;;;;;7.74;68.49;101783.78;4997164;28;20061;-96
2022/05/03 06:16:20;;;;;;;4.40;3.92;;;;;;;7.82;66.92;101799.94;4996237;28;20076;-96
2022/05/03 06:18:48;;;;;;;4.43;4.00;;;;;;;7.85;66.60;101794.22;4966052;28;20054;-95
2022/05/03 06:21:19;;;;;;;4.20;3.28;;;;;;;7.96;67.14;101800.25;4980714;28;20026;-95
2022/05/03 06:23:47;;;;;;;6.80;4.18;;;;;;;7.99;66.51;101787.25;4964775;28;20034;-96
2022/05/03 06:26:16;;;;;;;5.05;4.55;;;;;;;8.02;66.86;101795.00;4997666;28;20092;-96
2022/05/03 06:28:49;;;;;;;5.97;4.22;;;;;;;8.11;66.24;101790.41;4981110;28;20034;-96
2022/05/03 06:31:19;;;;;;;6.68;4.65;;;;;;;8.18;65.26;101799.50;4998274;28;20027;-95
2022/05/03 06:33:53;;;;;;;6.70;4.35;;;;;;;8.24;65.54;101797.94;4980100;28;20173;-94
2022/05/03 06:36:22;;;;;;;6.50;4.45;;;;;;;8.33;65.33;101801.44;4997150;28;20475;-96
2022/05/03 06:38:50;;;;;;;4.38;4.03;;;;;;;8.40;65.10;101794.28;4980742;28;20031;-96
2022/05/03 06:41:25;;;;;;;5.05;4.55;;;;;;;8.48;64.57;101791.59;4980502;28;20037;-96
2022/05/03 06:44:00;;;;;;;4.40;4.05;;;;;;;8.57;63.51;101784.25;4964513;28;20049;-96
2022/05/03 06:46:31;;;;;;;3.47;3.17;;;;;;;8.63;62.47;101780.81;4997140;28;20041;-96
2022/05/03 06:48:59;;;;;;;5.25;4.00;;;;;;;8.72;62.64;101787.84;4980664;28;20038;-96
2022/05/03 06:51:39;;;;;;;3.80;3.38;;;;;;;8.80;61.63;101791.53;4995929;28;20029;-96
2022/05/03 06:54:28;;;;;;;4.38;4.05;;;;;;;8.92;60.73;101799.06;5000125;28;20037;-95
2022/05/03 06:57:09;;;;;;;3.90;3.60;;;;;;;9.05;59.72;101798.44;4970676;28;20106;-95
2022/05/03 06:59:50;;;;;;;3.83;3.53;;;;;;;9.15;59.96;101792.75;5012694;28;20096;-96
2022/05/03 07:02:30;;;;;;;3.10;2.80;;;;;;;9.27;59.37;101799.44;5002970;28;20107;-95
2022/05/03 07:04:56;;;;;;;3.50;3.20;;;;;;;9.38;56.64;101803.56;5003891;28;20029;-96
2022/05/03 07:07:22;;;;;;;3.42;3.00;;;;;;;9.44;56.48;101802.00;5014217;28;20114;-96
2022/05/03 07:09:53;;;;;;;3.47;3.17;;;;;;;9.51;56.26;101805.66;5023272;28;20018;-94
2022/05/03 07:12:21;;;;;;;3.78;3.42;;;;;;;9.61;55.46;101806.22;5023081;28;20048;-96
2022/05/03 07:15:08;;;;;;;3.40;3.10;;;;;;;9.73;55.05;101803.03;5022783;28;20010;-95
2022/05/03 07:23:40;;;;;;;2.75;2.50;;;;;;;10.01;55.21;101800.53;5022295;28;19940;-95
2022/05/03 07:26:08;;;;;;;2.67;2.47;;;;;;;10.07;53.52;101804.31;5018748;28;20036;-95
2022/05/03 07:28:34;;;;;;;2.53;2.42;;;;;;;10.13;53.37;101801.72;5014318;28;20074;-96
2022/05/03 07:31:00;;;;;;;2.65;2.45;;;;;;;10.23;51.90;101800.56;5000081;28;20360;-92
2022/05/03 07:33:31;;;;;;;3.10;2.80;;;;;;;10.27;52.01;101808.13;4987890;28;20041;-95
2022/05/03 07:36:03;;;;;;;2.50;2.30;;;;;;;10.34;52.45;101806.38;5000245;28;20394;-96
2022/05/03 07:38:37;;;;;;;2.90;2.70;;;;;;;10.47;52.04;101794.03;5001666;28;20034;-96
2022/05/03 07:41:24;;;;;;;3.55;2.38;;;;;;;10.62;49.95;101811.09;4989056;28;20414;-96
2022/05/03 07:43:51;;;;;;;2.50;2.30;;;;;;;10.69;48.46;101805.75;5016698;28;20069;-96
2022/05/03 07:46:17;;;;;;;2.50;2.30;;;;;;;10.75;48.92;101804.97;5000886;28;20030;-96
2022/05/03 07:48:42;;;;;;;2.28;2.13;;;;;;;10.81;48.61;101817.75;4998940;28;20037;-96
2022/05/03 07:51:12;;;;;;;3.28;2.58;;;;;;;10.83;47.42;101809.41;4997859;28;20029;-96
2022/05/03 07:53:40;;;;;;;2.50;2.30;;;;;;;10.88;46.39;101802.38;4998687;28;20080;-96
2022/05/03 07:56:10;;;;;;;2.97;2.50;;;;;;;10.95;46.82;101802.41;4998402;28;20076;-95
2022/05/03 07:58:46;;;;;;;2.90;2.70;;;;;;;11.01;47.80;101806.25;4998990;28;20441;-96
2022/05/03 08:01:11;;;;;;;2.85;2.65;;;;;;;11.08;47.15;101803.59;4999155;28;20458;-96
2022/05/03 08:03:39;;;;;;;2.40;2.20;;;;;;;11.12;47.80;101804.91;4999254;28;20125;-96
2022/05/03 08:06:05;;;;;;;2.83;2.63;;;;;;;11.22;47.30;101810.84;4999458;28;20026;-96
2022/05/03 08:08:39;;;;;;;3.15;2.70;;;;;;;11.27;47.21;101813.78;5001417;28;20034;-96
2022/05/03 08:11:04;;;;;;;3.10;2.80;;;;;;;11.36;46.59;101811.78;4999378;28;20036;-96
2022/05/03 08:13:30;;;;;;;3.20;2.88;;;;;;;11.38;47.21;101804.25;4982330;28;20057;-96
2022/05/03 08:15:56;;;;;;;2.88;2.67;;;;;;;11.44;46.93;101803.47;4999002;28;20097;-96
2022/05/03 08:18:24;;;;;;;3.05;2.85;;;;;;;11.48;46.85;101804.75;4994374;28;20054;-96
2022/05/03 08:20:53;;;;;;;3.08;2.75;;;;;;;11.56;47.27;101810.03;4995402;28;20487;-96
2022/05/03 08:23:34;;;;;;;3.50;3.20;;;;;;;11.63;46.69;101804.63;4995175;28;20035;-96
2022/05/03 08:25:59;;;;;;;3.35;3.05;;;;;;;11.68;46.31;101813.03;4964549;28;20125;-96
2022/05/03 08:28:25;;;;;;;3.17;2.92;;;;;;;11.74;46.39;101814.13;4979099;28;20042;-96
2022/05/03 08:30:54;;;;;;;3.60;3.30;;;;;;;11.80;47.23;101816.03;4978339;28;20030;-96
2022/05/03 08:33:20;;;;;;;3.58;3.00;;;;;;;11.84;46.90;101813.75;4994789;28;20037;-96
2022/05/03 08:35:48;;;;;;;3.45;2.90;;;;;;;11.90;46.56;101816.53;4995014;28;20034;-96
2022/05/03 08:43:58;;;;;;;3.92;3.50;;;;;;;12.15;46.95;101807.91;4996591;28;20129;-96
2022/05/03 08:46:40;;;;;;;3.38;3.10;;;;;;;12.24;47.79;101814.00;4994444;28;20046;-95
2022/05/03 08:49:12;;;;;;;3.92;3.63;;;;;;;12.31;47.44;101808.56;4995828;28;20027;-96
2022/05/03 08:51:48;;;;;;;;;;;;;;;12.44;47.64;101822.22;4994009;28;20034;-95
2022/05/03 08:54:16;;;;;;;4.30;3.90;;;;;;;12.53;47.94;101820.16;4994378;28;20013;-96
2022/05/03 08:56:45;;;;;;;5.57;5.00;;;;;;;12.61;47.11;101817.28;4962040;28;20035;-96
2022/05/03 08:59:19;;;;;;;4.90;4.40;;;;;;;12.67;47.48;101811.00;4994654;28;20137;-96
2022/05/03 09:01:45;;;;;;;4.65;4.22;;;;;;;12.81;47.58;101814.59;4979741;28;20062;-96
2022/05/03 09:04:13;;;;;;;4.72;4.28;;;;;;;12.91;48.25;101814.19;4993863;28;20064;-96
2022/05/03 09:06:47;;;;;;;4.43;4.03;;;;;;;13.05;47.40;101817.75;4994028;28;20041;-96
2022/05/03 09:09:19;;;;;;;4.40;4.00;;;;;;;13.16;47.58;101815.25;5000489;28;20034;-96
2022/05/03 09:12:07;;;;;;;5.25;3.88;;;;;;;13.31;47.47;101816.94;4998464;28;20033;-96
2022/05/03 09:15:01;;;;;;;5.05;4.65;;;;;;;13.39;47.47;101815.91;4998771;28;20030;-96
2022/05/03 09:17:47;;;;;;;4.05;3.75;;;;;;;13.43;47.57;101812.53;4995245;28;20100;-96
2022/05/03 09:26:12;;;;;;;5.10;4.70;;;;;;;13.76;47.79;101813.53;4999224;28;20098;-96
2022/05/03 09:29:01;;;;;;;5.30;4.63;;;;;;;13.91;47.79;101821.50;4997481;28;20034;-96
2022/05/03 09:31:37;;;;;;;5.07;4.68;;;;;;;14.00;47.94;101818.31;4997936;28;20072;-96
2022/05/03 09:34:25;;;;;;;5.07;4.57;;;;;;;14.10;48.18;101808.84;4997354;28;20076;-96
2022/05/03 09:36:55;;;;;;;4.97;4.47;;;;;;;14.24;47.78;101809.63;4998345;28;20541;-96
2022/05/03 09:39:33;;;;;;;5.40;4.38;;;;;;;14.35;48.18;101809.78;4997855;28;20026;-96
2022/05/03 09:42:19;;;;;;;4.40;3.65;;;;;;;14.51;47.71;101818.53;4998085;28;20032;-96
2022/05/03 09:44:57;;;;;;;5.25;4.75;;;;;;;14.67;47.33;101809.03;4997990;28;20049;-96
2022/05/03 09:47:51;;;;;;;5.93;4.50;;;;;;;14.75;47.53;101800.56;4998131;28;20056;-96
2022/05/03 09:50:29;;;;;;;5.28;4.50;;;;;;;14.97;47.59;101813.88;4997189;28;20030;-96
2022/05/03 09:52:59;;;;;;;4.70;4.25;;;;;;;15.07;47.34;101803.28;4998524;28;20026;-96
2022/05/03 09:55:43;;;;;;;5.05;4.55;;;;;;;15.20;46.87;101800.44;4997670;28;20054;-96
2022/05/03 09:58:15;;;;;;;4.22;3.85;;;;;;;15.29;46.50;101798.25;4998941;28;20042;-96
2022/05/03 10:00:46;;;;;;;4.40;4.00;;;;;;;15.46;46.19;101801.28;4997350;28;20133;-96
2022/05/03 10:03:15;;;;;;;5.40;4.90;;;;;;;15.60;45.70;101797.34;4996416;28;20035;-96
2022/05/03 10:05:45;;;;;;;4.25;3.90;;;;;;;15.76;45.92;101804.09;4996679;28;20031;-96
2022/05/03 10:08:29;;;;;;;4.57;4.18;;;;;;;15.95;45.58;101799.50;4997314;28;20475;-96
2022/05/03 10:11:01;;;;;;;4.80;4.40;;;;;;;16.07;44.93;101793.28;4982554;28;20027;-96
2022/05/03 10:13:36;;;;;;;;;;;;;;;16.27;45.29;101801.25;4983109;28;20356;-96
2022/05/03 10:21:59;;;;;;;5.07;4.68;;;;;;;16.55;43.94;101786.97;5017947;28;20414;-96
2022/05/03 10:24:26;;;;;;;5.60;5.10;;;;;;;16.61;43.64;101791.50;5000616;28;20030;-96
2022/05/03 10:26:52;;;;;;;5.30;4.90;;;;;;;16.71;43.46;101792.84;5000988;28;20030;-96
2022/05/03 10:29:29;;;;;;;4.43;4.05;;;;;;;16.83;43.30;101785.50;5000006;28;20130;-96
2022/05/03 10:32:12;;;;;;;3.67;3.38;;;;;;;17.21;42.75;101784.28;5017684;28;20484;-96
2022/05/03 10:34:43;;;;;;;3.47;3.17;;;;;;;17.65;42.21;101783.94;4999497;28;20497;-96
2022/05/03 10:37:43;;;;;;;4.65;4.10;;;;;;;17.94;42.11;101782.13;5000596;28;20034;-96
2022/05/03 10:40:31;;;;;;;4.70;4.30;;;;;;;18.30;41.52;101780.09;5000053;28;20030;-96
2022/05/03 10:43:14;;;;;;;5.93;4.57;;;;;;;18.67;40.55;101782.44;5000125;28;20098;-96
2022/05/03 10:46:02;;;;;;;4.25;3.90;;;;;;;19.03;40.08;101772.09;5000443;28;20030;-96
2022/05/03 10:48:36;;;;;;;4.28;3.88;;;;;;;19.30;38.83;101765.91;5000641;28;20034;-96
2022/05/03 10:51:07;;;;;;;3.95;3.55;;;;;;;19.46;39.04;101776.06;5000205;28;20064;-94
2022/05/03 10:53:37;;;;;;;3.80;3.50;;;;;;;19.39;38.60;101761.66;4999932;28;20034;-95
2022/05/03 10:56:08;;;;;;;3.17;2.95;;;;;;;19.41;39.07;101764.16;4999864;28;20677;-95
2022/05/03 10:58:45;;;;;;;3.30;3.10;;;;;;;19.91;38.31;101762.38;5000070;28;20045;-96
2022/05/03 11:01:22;;;;;;;3.47;3.17;;;;;;;20.63;37.84;101764.00;5000106;28;20471;-95
2022/05/03 11:04:06;;;;;;;4.90;3.65;;;;;;;21.07;35.55;101770.47;4999785;28;20034;-96
2022/05/03 11:06:37;;;;;;;4.03;3.70;;;;;;;20.72;36.60;101764.41;4996111;28;20037;-94
2022/05/03 11:14:28;;;;;;;3.60;3.30;;;;;;;21.57;34.89;101762.84;5008088;28;20037;-95
2022/05/03 11:17:13;;;;;;;3.35;2.97;;;;;;;25.00;30.75;101737.72;4999031;28;20128;-95
2022/05/03 11:19:55;;;;;;;3.17;2.97;;;;;;;27.98;26.48;101738.00;4998873;28;20050;-95
2022/05/03 11:22:43;;;;;;;;;;;;;;;;;;;;;
2022/05/03 11:25:17;;;;;;;3.15;2.85;;;;;;;33.33;20.58;101726.00;5016898;28;20036;-95
2022/05/03 11:27:44;;;;;;;2.90;2.70;;;;;;;35.22;19.22;101728.34;4983079;28;20038;-94
2022/05/03 11:30:17;;;;;;;2.50;2.30;;;;;;;36.39;18.08;101722.22;4997534;28;20506;-94
2022/05/03 11:32:45;;;;;;;2.88;2.67;;;;;;;36.47;16.71;101721.19;4998530;28;20060;-95
2022/05/03 11:35:42;;;;;;;1.88;1.77;;;;;;;37.62;16.41;101715.91;4980176;28;20121;-94
2022/05/03 11:38:12;;;;;;;2.15;1.95;;;;;;;35.36;17.72;101711.03;5015353;28;20033;-95
2022/05/03 11:41:01;;;;;;;2.03;1.93;;;;;;;36.23;17.28;101708.16;4998935;28;20104;-95
2022/05/03 11:43:35;;;;;;;1.75;1.65;;;;;;;37.57;17.53;101702.91;5015471;28;20038;-95
2022/05/03 11:46:00;;;;;;;1.90;1.80;;;;;;;35.48;16.71;101710.91;4998930;28;20025;-96
2022/05/03 11:48:35;;;;;;;2.63;2.10;;;;;;;33.01;19.16;101708.00;4998140;28;20030;-95
2022/05/03 11:57:16;;;;;;;2.95;2.60;;;;;;;28.22;24.44;101686.69;5015808;28;20041;-95
2022/05/03 11:59:45;;;;;;;3.58;2.83;;;;;;;27.50;24.66;101688.25;4998214;28;20489;-96
2022/05/03 12:02:31;;;;;;;2.60;2.40;;;;;;;27.02;26.45;101695.00;4997396;28;20037;-96
2022/05/03 12:05:21;;;;;;;;;;;;;;;;;;;;;
2022/05/03 12:08:23;;;;;;;2.38;2.17;;;;;;;26.41;27.09;101678.19;5015781;28;20036;-96
2022/05/03 12:10:56;;;;;;;2.88;2.67;;;;;;;26.25;26.19;101675.66;4972316;28;20049;-95
2022/05/03 12:13:27;;;;;;;2.55;2.28;;;;;;;25.78;26.73;101684.94;4998091;28;20549;-96
2022/05/03 12:16:11;;;;;;;2.42;2.25;;;;;;;25.16;27.13;101683.72;4997991;28;20026;-96
2022/05/03 12:18:46;;;;;;;2.08;1.98;;;;;;;24.92;27.68;101685.63;4997824;28;20033;-95
2022/05/03 12:24:13;;;;;;;1.88;1.77;;;;;;;24.75;27.63;101666.63;5015676;28;20056;-95
2022/05/03 12:26:51;;;;;;;1.83;1.73;;;;;;;24.99;27.24;101670.25;4998719;28;20052;-95
2022/05/03 12:29:29;;;;;;;2.92;2.72;;;;;;;25.09;27.75;101668.53;4998083;28;20112;-95
2022/05/03 12:32:06;;;;;;;3.20;2.90;;;;;;;24.94;28.21;101662.00;4998130;28;20037;-96
2022/05/03 12:34:34;;;;;;;3.60;3.30;;;;;;;24.87;28.40;101664.28;4998250;28;20433;-95
2022/05/03 12:37:12;;;;;;;3.25;2.95;;;;;;;24.68;29.07;101659.50;4997962;28;20037;-96
2022/05/03 12:39:40;;;;;;;3.05;2.75;;;;;;;24.63;29.11;101659.53;4998032;28;20391;-95
2022/05/03 12:42:11;;;;;;;3.70;3.40;;;;;;;24.30;29.23;101653.66;4997716;28;20080;-96
2022/05/03 12:45:19;;;;;;;4.53;4.13;;;;;;;23.88;29.77;101655.03;4997724;28;20026;-95
2022/05/03 12:47:57;;;;;;;3.30;3.05;;;;;;;23.38;30.90;101651.38;4993001;28;20038;-95
2022/05/03 12:50:32;;;;;;;3.97;3.47;;;;;;;23.47;30.64;101647.75;4998004;28;20050;-96
2022/05/03 12:53:03;;;;;;;3.42;3.13;;;;;;;23.54;31.02;101646.63;4998171;28;20037;-96
2022/05/03 12:59:50;;;;;;;3.80;3.28;;;;;;;24.19;29.05;101638.22;5114927;28;20126;-96
2022/05/03 13:02:23;;;;;;;3.75;3.42;;;;;;;24.63;28.78;101645.66;5097280;28;20031;-96
2022/05/03 13:04:54;;;;;;;3.22;2.92;;;;;;;25.08;28.49;101651.03;5097071;28;20127;-96
2022/05/03 13:07:29;;;;;;;2.87;2.60;;;;;;;25.88;27.78;101641.16;5114403;28;20032;-96
2022/05/03 13:10:02;;;;;;;2.55;2.35;;;;;;;27.20;26.75;101640.34;5113208;28;20056;-96
2022/05/03 13:12:48;;;;;;;3.40;3.10;;;;;;;28.83;25.31;101636.88;5096458;28;20098;-96
2022/05/03 13:15:21;;;;;;;3.00;2.60;;;;;;;31.38;22.17;101633.75;5111979;28;20036;-96
2022/05/03 13:17:47;;;;;;;2.85;2.47;;;;;;;32.69;20.21;101632.69;5096833;28;20053;-96
2022/05/03 13:20:15;;;;;;;3.10;2.90;;;;;;;32.81;19.93;101631.88;5113026;28;20121;-96
2022/05/03 13:22:59;;;;;;;2.72;2.47;;;;;;;32.59;20.60;101632.28;5096670;28;20103;-96
2022/05/03 13:25:30;;;;;;;2.65;2.45;;;;;;;32.20;20.24;101626.91;5096689;28;20051;-96
2022/05/03 13:27:59;;;;;;;2.90;2.70;;;;;;;31.56;20.17;101631.66;5115362;28;20032;-96
2022/05/03 13:30:27;;;;;;;3.33;2.97;;;;;;;30.65;20.60;101625.47;5114331;28;20035;-96
2022/05/03 13:32:55;;;;;;;2.00;1.90;;;;;;;30.31;21.90;101622.41;5116475;28;20044;-96
2022/05/03 13:41:31;;;;;;;3.05;2.85;;;;;;;28.89;23.72;101618.84;5118346;28;20055;-96
2022/05/03 13:44:02;;;;;;;3.90;3.60;;;;;;;28.76;23.11;101620.59;5111310;28;20082;-96
2022/05/03 13:46:30;;;;;;;3.45;3.13;;;;;;;28.25;23.42;101616.31;5115308;28;20020;-95
2022/05/03 13:48:59;;;;;;;4.03;3.63;;;;;;;27.90;24.74;101621.59;5120346;28;20044;-95
2022/05/03 13:54:10;;;;;;;4.45;4.05;;;;;;;27.30;26.18;101623.44;5120986;28;20067;-96
2022/05/03 13:56:43;;;;;;;3.20;2.97;;;;;;;26.85;26.38;101612.88;5118608;28;20123;-96
2022/05/03 13:59:09;;;;;;;4.00;3.70;;;;;;;27.36;25.87;101613.84;5107817;28;20026;-96
2022/05/03 14:01:37;;;;;;;5.25;4.20;;;;;;;28.30;25.02;101611.44;5134616;28;20043;-96
2022/05/03 14:04:03;;;;;;;3.90;3.60;;;;;;;28.41;24.88;101603.63;5135173;28;20020;-96
2022/05/03 14:06:35;;;;;;;4.47;4.00;;;;;;;28.26;24.61;101606.78;5131472;28;20051;-96
2022/05/03 14:09:08;;;;;;;4.07;3.72;;;;;;;27.81;25.17;101613.97;5121895;28;20071;-96
2022/05/03 14:11:50;;;;;;;;;;;;;;;;;;;;;
2022/05/03 14:14:35;;;;;;;5.55;3.60;;;;;;;26.81;26.04;101613.81;5121461;28;20004;-96
2022/05/03 14:17:08;;;;;;;4.90;4.40;;;;;;;26.34;27.31;101611.84;5104756;28;20036;-95
2022/05/03 14:19:39;;;;;;;11.95;9.93;;;;;;;26.05;28.23;101598.94;5100282;28;20082;-96
2022/05/03 14:22:16;;;;;;;20.45;15.60;;;;;;;25.28;30.35;101616.66;5087742;28;20083;-96
2022/05/03 14:25:01;;;;;;;19.33;15.77;;;;;;;24.67;31.89;101605.13;5069680;28;20048;-96
2022/05/03 14:27:52;;;;;;;17.55;14.85;;;;;;;24.44;32.70;101617.78;5080766;28;20085;-96
2022/05/03 14:30:18;;;;;;;20.10;17.13;;;;;;;24.33;32.82;101624.50;5098816;28;20035;-96
2022/05/03 14:32:49;;;;;;;19.42;15.25;;;;;;;23.91;33.66;101617.63;5104364;28;20059;-96
2022/05/03 14:35:27;;;;;;;20.73;16.65;;;;;;;24.45;33.82;101616.66;5070278;28;20170;-96
2022/05/03 14:37:53;;;;;;;16.58;14.18;;;;;;;25.17;33.16;101620.66;5081617;28;20127;-96
2022/05/03 14:40:24;;;;;;;14.38;12.15;;;;;;;26.00;31.73;101624.06;5078146;28;20440;-96
2022/05/03 14:42:52;;;;;;;17.15;13.95;;;;;;;26.18;30.95;101616.81;5062949;28;20068;-96
2022/05/03 14:45:26;;;;;;;16.30;13.10;;;;;;;25.99;31.43;101618.78;5081127;28;20020;-96
2022/05/03 14:48:20;;;;;;;14.43;12.23;;;;;;;25.99;31.79;101619.63;5065002;28;20060;-96
2022/05/03 14:50:49;;;;;;;14.43;11.70;;;;;;;26.07;31.41;101615.31;5079557;28;20040;-96
2022/05/03 14:53:19;;;;;;;15.25;12.38;;;;;;;25.85;32.23;101627.03;5079950;28;20129;-96
2022/05/03 15:02:52;;;;;;;13.85;11.27;;;;;;;26.15;31.52;101613.84;5064057;28;20052;-96
2022/05/03 15:04:09;;;;;;;13.38;10.60;;;;;;;29.15;27.77;101615.34;5081485;28;20090;-96
2022/05/03 15:06:50;;;;;;;;;;;;;;;;;;;;;
2022/05/03 15:09:36;;;;;;;10.98;9.80;;;;;;;29.71;27.32;101622.03;5082608;28;20453;-96
2022/05/03 15:12:02;;;;;;;12.73;10.10;;;;;;;29.71;27.53;101619.25;5079339;28;20060;-96
2022/05/03 15:14:30;;;;;;;13.05;11.20;;;;;;;29.71;26.89;101615.63;5078148;28;20392;-96
2022/05/03 15:17:33;;;;;;;14.05;10.90;;;;;;;28.72;28.21;101625.16;5062696;28;20078;-96
2022/05/03 15:19:59;;;;;;;13.50;11.07;;;;;;;27.96;29.04;101614.75;5068582;28;20124;-96
2022/05/03 15:25:46;;;;;;;9.90;8.90;;;;;;;26.79;30.47;101614.13;5082854;28;20048;-96
2022/05/03 15:28:16;;;;;;;8.00;7.00;;;;;;;26.97;30.77;101617.94;5081685;28;20040;-96
2022/05/03 15:30:47;;;;;;;11.73;9.20;;;;;;;27.36;30.06;101626.94;5080537;28;20035;-96
2022/05/03 15:33:15;;;;;;;15.17;12.10;;;;;;;27.34;30.02;101630.03;5080764;28;20078;-96
2022/05/03 15:35:41;;;;;;;15.07;11.77;;;;;;;27.13;30.09;101626.84;5079475;28;20286;-96
2022/05/03 15:38:09;;;;;;;13.77;11.23;;;;;;;28.29;28.92;101631.28;5078247;28;20028;-96
2022/05/03 15:40:41;;;;;;;12.05;10.23;;;;;;;29.27;28.01;101626.72;5080836;28;20036;-96
2022/05/03 15:43:13;;;;;;;10.27;7.80;;;;;;;30.71;26.56;101624.13;5066609;28;20378;-96
2022/05/03 15:45:41;;;;;;;11.27;8.70;;;;;;;31.47;24.81;101623.28;5082968;28;20032;-96
2022/05/03 15:48:18;;;;;;;11.70;9.10;;;;;;;30.98;24.96;101631.28;5082004;28;20129;-96
2022/05/03 15:51:22;;;;;;;;;;;;;;;;;;;;;
2022/05/03 15:53:56;;;;;;;12.43;10.00;;;;;;;29.42;27.06;101619.03;5085738;28;20064;-96
2022/05/03 15:56:25;;;;;;;10.45;7.97;;;;;;;29.94;26.39;101621.09;5082185;28;20110;-96
2022/05/03 15:59:00;;;;;;;9.38;7.97;;;;;;;30.24;25.91;101628.50;5081269;28;20032;-96
2022/05/03 16:01:25;;;;;;;11.93;9.05;;;;;;;29.68;26.27;101619.09;5082271;28;20063;-96
2022/05/03 16:03:57;;;;;;;10.82;8.10;;;;;;;28.39;27.86;101633.81;5085235;28;20024;-96
2022/05/03 16:06:53;;;;;;;;;;;;;;;;;;;;;
2022/05/03 16:09:19;;;;;;;10.88;8.50;;;;;;;26.05;31.25;101621.19;5092630;22;20004;-94
2022/05/03 16:14:34;;;;;;;14.50;11.57;;;;;;;24.70;33.50;101614.81;5465245;22;20088;-96
2022/05/03 16:17:11;;;;;;;12.18;9.23;;;;;;;23.76;35.30;101624.06;5031171;28;20034;-96
2022/05/03 16:19:45;;;;;;;9.00;7.35;;;;;;;23.51;35.29;101623.06;5016114;28;20030;-96
2022/05/03 16:22:15;;;;;;;10.43;8.48;;;;;;;23.23;36.09;101621.81;5012170;28;20049;-96
2022/05/03 16:24:41;;;;;;;12.20;9.05;;;;;;;23.14;36.54;101621.56;5025309;28;20065;-96
2022/05/03 16:27:22;;;;;;;12.15;9.30;;;;;;;23.00;36.07;101624.06;5019868;28;20088;-96
2022/05/03 16:29:52;;;;;;;14.25;10.50;;;;;;;22.77;36.37;101626.31;5020732;28;20040;-96
2022/05/03 16:32:19;;;;;;;13.55;10.35;;;;;;;22.18;37.55;101622.16;5039502;28;20029;-96
2022/05/03 16:34:45;;;;;;;12.85;9.75;;;;;;;21.91;38.43;101616.88;5004899;28;20474;-96
2022/05/03 16:42:44;;;;;;;15.82;11.65;;;;;;;21.03;40.41;101626.72;5020945;28;20076;-96
2022/05/03 16:45:14;;;;;;;13.55;10.40;;;;;;;20.54;41.01;101635.19;5017729;28;20366;-96
2022/05/03 16:47:40;;;;;;;15.70;11.18;;;;;;;20.19;42.62;101631.84;5000915;28;20144;-96
2022/05/03 16:50:09;;;;;;;12.30;9.70;;;;;;;19.91;43.47;101633.78;5017076;28;20060;-96
2022/05/03 16:52:38;;;;;;;15.77;12.45;;;;;;;19.80;43.53;101632.84;5017933;28;20079;-96
2022/05/03 16:55:06;;;;;;;16.60;12.55;;;;;;;19.50;44.19;101637.94;5017212;28;20077;-96
2022/05/03 16:57:32;;;;;;;12.70;10.10;;;;;;;19.11;45.44;101631.41;5019713;28;20025;-96
2022/05/03 17:00:00;;;;;;;12.82;10.25;;;;;;;18.91;45.63;101631.09;5017384;28;20040;-96
2022/05/03 17:02:28;;;;;;;12.30;9.88;;;;;;;18.87;45.54;101650.03;5017464;28;20432;-95
2022/05/03 17:05:01;;;;;;;12.23;9.43;;;;;;;18.71;45.61;101642.59;5017234;28;20466;-96
2022/05/03 17:07:27;;;;;;;9.60;8.60;;;;;;;18.62;46.61;101646.88;5033906;28;20021;-96
2022/05/03 17:09:56;;;;;;;13.43;10.20;;;;;;;18.46;47.78;101645.78;5017209;28;20120;-96
2022/05/03 17:12:25;;;;;;;13.02;9.48;;;;;;;18.27;47.56;101642.44;5017578;28;20046;-96
2022/05/03 17:14:53;;;;;;;12.05;9.70;;;;;;;18.11;47.69;101641.31;4983115;28;20062;-96
2022/05/03 17:17:20;;;;;;;12.40;9.27;;;;;;;17.99;47.76;101642.19;4978184;28;20050;-96
2022/05/03 17:19:46;;;;;;;12.02;9.98;;;;;;;17.94;48.61;101654.97;4994936;28;20022;-96
2022/05/03 17:22:12;;;;;;;12.13;9.73;;;;;;;17.80;49.79;101652.50;4994325;28;20614;-96
2022/05/03 17:24:43;;;;;;;14.38;10.55;;;;;;;17.68;48.80;101654.47;4994210;28;20026;-95
2022/05/03 17:27:09;;;;;;;13.93;9.85;;;;;;;17.41;50.57;101645.97;4962335;28;20026;-95
2022/05/03 17:29:43;;;;;;;10.30;8.68;;;;;;;17.31;50.33;101657.53;4994104;28;20037;-95
2022/05/03 17:32:29;;;;;;;11.38;9.07;;;;;;;17.18;51.47;101662.22;4994594;28;20134;-95
2022/05/03 17:34:58;;;;;;;10.88;8.25;;;;;;;17.00;50.74;101657.66;4994275;28;20109;-94
2022/05/03 17:37:34;;;;;;;11.32;9.45;;;;;;;16.90;49.99;101662.09;4994130;28;20026;-96
2022/05/03 17:40:04;;;;;;;10.60;8.82;;;;;;;16.74;51.36;101661.69;4994213;28;20035;-94
2022/05/03 17:42:45;;;;;;;9.70;8.63;;;;;;;16.61;52.89;101657.28;4996090;28;20129;-95
2022/05/03 17:45:51;;;;;;;12.18;9.70;;;;;;;16.54;51.62;101658.47;4996852;28;20026;-95
2022/05/03 17:48:21;;;;;;;14.65;10.20;;;;;;;16.21;53.61;101663.38;4996936;28;20027;-96
2022/05/03 17:50:50;;;;;;;11.15;9.80;;;;;;;16.01;53.71;101660.09;4996825;28;20023;-96
2022/05/03 17:56:16;;;;;;;12.02;9.73;;;;;;;15.84;52.95;101659.88;4999152;28;20088;-96
2022/05/03 17:59:12;;;;;;;12.70;10.38;;;;;;;15.84;53.63;101659.88;4996251;28;20121;-96
2022/05/03 18:01:44;;;;;;;13.93;11.20;;;;;;;15.66;54.20;101658.81;4968944;28;20039;-96
2022/05/03 18:04:10;;;;;;;13.70;10.90;;;;;;;15.38;55.99;101656.63;4996088;28;20026;-96
2022/05/03 18:06:59;;;;;;;13.23;10.70;;;;;;;15.27;56.00;101658.22;4996116;28;20474;-96
2022/05/03 18:09:26;;;;;;;13.02;10.77;;;;;;;15.27;56.33;101667.25;4997846;28;20042;-94
2022/05/03 18:11:52;;;;;;;14.00;10.18;;;;;;;15.16;56.80;101668.03;4981677;28;20046;-95
2022/05/03 18:14:20;;;;;;;12.23;9.32;;;;;;;15.04;57.08;101664.34;4999198;28;20482;-96
2022/05/03 18:16:46;;;;;;;14.15;10.65;;;;;;;14.93;57.24;101667.84;4997806;28;20031;-95
2022/05/03 18:19:12;;;;;;;13.15;10.02;;;;;;;14.87;58.23;101678.59;4996700;28;20050;-96
2022/05/03 18:21:42;;;;;;;12.57;9.52;;;;;;;14.74;57.35;101660.41;4996683;28;20034;-95
2022/05/03 18:24:09;;;;;;;13.02;10.10;;;;;;;14.63;58.90;101677.53;4981034;28;20131;-95
2022/05/03 18:26:37;;;;;;;12.13;9.25;;;;;;;14.64;57.42;101676.47;4996717;28;20027;-95
2022/05/03 18:29:10;;;;;;;14.00;10.45;;;;;;;14.61;58.89;101681.50;4996831;28;20030;-96
2022/05/03 18:31:41;;;;;;;12.88;10.40;;;;;;;14.54;58.42;101679.69;4995770;28;20116;-96
2022/05/03 18:34:16;;;;;;;12.95;10.50;;;;;;;14.46;58.05;101681.84;4979163;28;20473;-96
2022/05/03 18:36:44;;;;;;;13.88;10.57;;;;;;;14.38;58.25;101680.22;4978877;28;20062;-94
2022/05/03 18:39:16;;;;;;;16.73;10.25;;;;;;;14.30;58.68;101681.28;4979382;28;20145;-96
2022/05/03 18:41:47;;;;;;;11.88;9.60;;;;;;;14.19;59.35;101679.28;4979484;28;20451;-95
2022/05/03 18:44:25;;;;;;;14.40;10.63;;;;;;;14.05;59.12;101681.25;4995591;28;20022;-95